createdAt,value
2019-04-23T00:01:38.210Z,8.80
2019-04-23T00:04:08.537Z,10.30
2019-04-23T00:06:45.392Z,9.97
2019-04-23T00:09:13.066Z,7.30
2019-04-23T00:11:39.856Z,9.10
2019-04-23T00:14:12.190Z,8.90
2019-04-23T00:16:38.189Z,9.40
2019-04-23T00:19:10.367Z,8.63
2019-04-23T00:21:48.265Z,8.20
2019-04-23T00:24:56.839Z,8.13
2019-04-23T00:27:19.617Z,8.23
2019-04-23T00:29:44.437Z,8.47
2019-04-23T00:32:08.128Z,7.83
2019-04-23T00:34:42.511Z,9.73
2019-04-23T00:37:12.459Z,9.70
2019-04-23T00:39:41.025Z,8.07
2019-04-23T00:42:15.441Z,7.10
2019-04-23T00:47:14.275Z,7.50
2019-04-23T00:49:40.187Z,6.80
2019-04-23T00:52:14.452Z,8.07
2019-04-23T00:54:41.134Z,9.37
2019-04-23T00:57:22.682Z,7.20
2019-04-23T00:59:46.255Z,7.90
2019-04-23T01:02:11.233Z,7.40
2019-04-23T01:07:14.725Z,8.93
2019-04-23T01:09:45.710Z,8.90
2019-04-23T01:12:26.595Z,6.90
2019-04-23T01:14:48.235Z,7.27
2019-04-23T01:17:31.860Z,7.27
2019-04-23T01:19:57.723Z,6.97
2019-04-23T01:22:08.431Z,6.47
2019-04-23T01:24:44.110Z,5.10
2019-04-23T01:30:17.898Z,8.77
2019-04-23T01:32:32.062Z,8.23
2019-04-23T01:37:41.102Z,8.40
2019-04-23T01:40:18.815Z,6.73
2019-04-23T01:47:45.382Z,6.20
2019-04-23T01:50:21.898Z,5.80
2019-04-23T01:52:53.942Z,6.80
2019-04-23T01:55:15.458Z,7.03
2019-04-23T02:02:49.585Z,7.87
2019-04-23T02:05:23.289Z,7.13
2019-04-23T02:08:06.471Z,6.80
2019-04-23T02:10:33.271Z,6.77
2019-04-23T02:15:16.842Z,7.37
2019-04-23T02:17:55.369Z,6.73
2019-04-23T02:20:25.886Z,7.83
2019-04-23T02:23:00.817Z,7.77
2019-04-23T02:25:39.404Z,6.87
2019-04-23T02:27:59.876Z,7.23
2019-04-23T02:30:59.876Z,6.50
2019-04-23T02:33:28.731Z,7.97
2019-04-23T02:40:49.586Z,7.17
2019-04-23T02:45:39.770Z,6.93
2019-04-23T02:48:11.156Z,8.07
2019-04-23T02:50:43.904Z,6.67
2019-04-23T02:53:14.434Z,7.17
2019-04-23T02:55:45.522Z,7.73
2019-04-23T02:58:10.630Z,7.60
2019-04-23T03:03:14.084Z,6.37
2019-04-23T03:05:46.539Z,6.97
2019-04-23T03:10:57.118Z,7.10
2019-04-23T03:18:39.778Z,6.33
2019-04-23T03:21:15.510Z,6.03
2019-04-23T03:23:44.671Z,5.73
2019-04-23T03:32:48.580Z,6.70
2019-04-23T03:41:21.523Z,6.20
2019-04-23T03:43:44.792Z,6.80
2019-04-23T03:46:24.543Z,7.73
2019-04-23T03:48:47.700Z,5.73
2019-04-23T03:51:17.254Z,6.47
2019-04-23T03:56:25.469Z,5.27
2019-04-23T03:58:46.998Z,6.13
2019-04-23T04:01:23.586Z,5.20
2019-04-23T04:04:23.016Z,5.30
2019-04-23T04:08:58.299Z,4.73
2019-04-23T04:16:18.196Z,6.40
2019-04-23T04:21:29.783Z,9.23
2019-04-23T04:24:06.828Z,8.23
2019-04-23T04:26:49.285Z,9.77
2019-04-23T04:29:00.930Z,9.53
2019-04-23T04:31:37.420Z,6.93
2019-04-23T04:34:21.439Z,8.90
2019-04-23T04:36:26.497Z,6.90
2019-04-23T04:38:54.448Z,8.23
2019-04-23T04:44:05.291Z,7.03
2019-04-23T04:48:55.835Z,7.13
2019-04-23T04:56:29.156Z,7.37
2019-04-23T05:03:58.222Z,6.23
2019-04-23T05:06:39.086Z,6.47
2019-04-23T05:11:34.986Z,5.37
2019-04-23T05:14:03.265Z,7.10
2019-04-23T05:16:27.632Z,5.37
2019-04-23T05:19:23.470Z,5.33
2019-04-23T05:21:46.860Z,9.17
2019-04-23T05:24:12.621Z,6.50
2019-04-23T05:26:39.246Z,7.17
2019-04-23T05:31:32.995Z,5.53
2019-04-23T05:34:27.323Z,6.40
2019-04-23T05:36:45.479Z,6.50
2019-04-23T05:39:20.831Z,6.17
2019-04-23T05:41:45.579Z,6.00
2019-04-23T05:44:21.622Z,5.47
2019-04-23T05:47:11.718Z,5.33
2019-04-23T05:49:22.710Z,7.17
2019-04-23T05:56:51.646Z,5.47
2019-04-23T05:59:26.248Z,4.57
2019-04-23T06:01:57.227Z,5.43
2019-04-23T06:04:24.751Z,5.67
2019-04-23T06:07:08.777Z,3.80
2019-04-23T06:09:25.237Z,5.17
2019-04-23T06:12:00.155Z,6.57
2019-04-23T06:14:28.740Z,6.70
2019-04-23T06:17:01.418Z,6.67
2019-04-23T06:19:21.415Z,7.60
2019-04-23T06:22:13.965Z,6.00
2019-04-23T06:27:00.644Z,5.57
2019-04-23T06:29:32.205Z,6.30
2019-04-23T06:34:28.440Z,6.47
2019-04-23T06:37:05.311Z,8.20
2019-04-23T06:39:44.502Z,6.47
2019-04-23T06:42:21.077Z,4.77
2019-04-23T06:44:37.893Z,5.33
2019-04-23T06:47:09.840Z,4.97
2019-04-23T06:52:15.025Z,7.83
2019-04-23T06:54:49.331Z,3.80
2019-04-23T06:57:17.894Z,6.87
2019-04-23T06:59:42.537Z,6.13
2019-04-23T07:02:15.066Z,8.37
2019-04-23T07:04:49.995Z,5.10
2019-04-23T07:09:40.976Z,5.77
2019-04-23T07:12:20.169Z,6.23
2019-04-23T07:17:09.943Z,5.10
2019-04-23T07:19:42.287Z,6.40
2019-04-23T07:22:16.425Z,8.87
2019-04-23T07:24:49.106Z,7.53
2019-04-23T07:27:15.197Z,5.97
2019-04-23T07:29:45.740Z,6.67
2019-04-23T07:32:11.065Z,6.50
2019-04-23T07:34:49.395Z,6.00
2019-04-23T07:37:18.892Z,6.80
2019-04-23T07:39:58.876Z,7.07
2019-04-23T07:42:29.903Z,6.77
2019-04-23T07:45:02.109Z,7.43
2019-04-23T07:48:03.704Z,8.90
2019-04-23T07:50:47.680Z,7.47
2019-04-23T07:53:00.274Z,5.30
2019-04-23T07:57:58.279Z,9.67
2019-04-23T08:02:58.296Z,7.60
2019-04-23T08:05:32.052Z,8.40
2019-04-23T08:07:58.797Z,8.77
2019-04-23T08:10:29.416Z,8.27
2019-04-23T08:13:00.871Z,8.10
2019-04-23T08:15:28.335Z,5.60
2019-04-23T08:18:00.203Z,8.03
2019-04-23T08:20:33.466Z,7.10
2019-04-23T08:23:06.761Z,6.17
2019-04-23T08:25:37.188Z,7.57
2019-04-23T08:28:06.208Z,7.27
2019-04-23T08:30:37.778Z,8.10
2019-04-23T08:33:10.994Z,8.73
2019-04-23T08:38:25.965Z,8.47
2019-04-23T08:40:43.185Z,8.80
2019-04-23T08:43:34.856Z,8.50
2019-04-23T08:45:53.041Z,7.57
2019-04-23T08:48:41.609Z,8.97
2019-04-23T08:51:07.534Z,8.27
2019-04-23T08:56:08.988Z,9.33
2019-04-23T09:01:00.504Z,8.73
2019-04-23T09:03:31.277Z,7.93
2019-04-23T09:05:57.404Z,6.90
2019-04-23T09:11:05.114Z,6.43
2019-04-23T09:13:54.824Z,8.33
2019-04-23T09:16:13.465Z,6.87
2019-04-23T09:21:02.109Z,8.77
2019-04-23T09:25:57.856Z,7.53
2019-04-23T09:28:40.152Z,8.30
2019-04-23T09:31:11.525Z,7.40
2019-04-23T09:33:46.948Z,5.80
2019-04-23T09:44:46.088Z,8.80
2019-04-23T09:47:01.909Z,6.77
2019-04-23T09:49:26.096Z,8.07
2019-04-23T09:52:02.506Z,6.57
2019-04-23T09:54:25.885Z,8.53
2019-04-23T09:56:52.263Z,7.73
2019-04-23T10:01:45.232Z,7.63
2019-04-23T10:04:13.139Z,10.23
2019-04-23T10:06:33.388Z,8.03
2019-04-23T10:09:02.625Z,8.93
2019-04-23T10:11:30.547Z,8.37
2019-04-23T10:14:00.752Z,8.37
2019-04-23T10:16:33.724Z,8.03
2019-04-23T10:19:00.973Z,7.20
2019-04-23T10:21:31.078Z,7.23
2019-04-23T10:24:01.394Z,6.80
2019-04-23T10:26:30.375Z,6.80
2019-04-23T10:29:02.130Z,8.00
2019-04-23T10:31:31.579Z,7.63
2019-04-23T10:34:01.967Z,7.27
2019-04-23T10:36:32.521Z,7.20
2019-04-23T10:39:08.587Z,6.77
2019-04-23T10:41:32.658Z,7.23
2019-04-23T10:44:04.992Z,7.00
2019-04-23T10:47:08.548Z,7.83
2019-04-23T10:49:53.330Z,10.10
2019-04-23T10:52:28.084Z,7.70
2019-04-23T10:54:45.407Z,8.23
2019-04-23T10:59:47.500Z,6.30
2019-04-23T11:02:40.402Z,8.07
2019-04-23T11:09:55.717Z,10.13
2019-04-23T11:12:37.191Z,10.00
2019-04-23T11:15:11.280Z,9.03
2019-04-23T11:17:38.474Z,9.27
2019-04-23T11:20:07.763Z,8.77
2019-04-23T11:22:44.140Z,9.77
2019-04-23T11:25:16.082Z,9.27
2019-04-23T11:27:40.037Z,9.63
2019-04-23T11:30:13.412Z,11.33
2019-04-23T11:32:46.830Z,10.70
2019-04-23T11:40:13.001Z,9.03
2019-04-23T11:42:42.761Z,10.43
2019-04-23T11:45:15.281Z,9.17
2019-04-23T11:50:24.250Z,10.77
2019-04-23T11:55:22.811Z,8.03
2019-04-23T12:00:13.903Z,7.37
2019-04-23T12:02:49.871Z,7.90
2019-04-23T12:05:41.485Z,9.17
2019-04-23T12:08:09.396Z,9.33
2019-04-23T12:10:47.863Z,8.63
2019-04-23T12:13:15.626Z,8.37
2019-04-23T12:15:37.712Z,11.07
2019-04-23T12:18:15.058Z,10.80
2019-04-23T12:20:46.325Z,8.37
2019-04-23T12:23:25.314Z,10.27
2019-04-23T12:25:47.715Z,10.00
2019-04-23T12:28:14.081Z,10.53
2019-04-23T12:30:44.942Z,8.93
2019-04-23T12:33:26.660Z,8.60
2019-04-23T12:35:45.745Z,8.07
2019-04-23T12:38:18.970Z,8.10
2019-04-23T12:43:19.038Z,9.43
2019-04-23T12:45:56.594Z,7.80
2019-04-23T12:53:30.536Z,9.23
2019-04-23T12:55:50.559Z,10.43
2019-04-23T12:58:27.671Z,8.27
2019-04-23T13:00:48.458Z,11.07
2019-04-23T13:03:25.210Z,10.87
2019-04-23T13:05:42.234Z,9.23
2019-04-23T13:10:49.666Z,9.97
2019-04-23T13:15:51.930Z,10.40
2019-04-23T13:20:58.049Z,9.37
2019-04-23T13:25:59.650Z,9.43
2019-04-23T13:28:37.533Z,9.60
2019-04-23T13:36:17.539Z,12.57
2019-04-23T13:38:41.747Z,11.73
2019-04-23T13:41:17.303Z,9.73
2019-04-23T13:43:48.267Z,9.57
2019-04-23T13:46:13.329Z,10.57
2019-04-23T13:48:40.157Z,12.47
2019-04-23T13:56:23.809Z,8.80
2019-04-23T14:06:22.829Z,11.10
2019-04-23T14:08:53.726Z,9.13
2019-04-23T14:16:32.707Z,10.53
2019-04-23T14:26:29.403Z,9.47
2019-04-23T14:31:17.325Z,10.93
2019-04-23T14:34:01.348Z,11.77
2019-04-23T14:41:26.296Z,10.83
2019-04-23T14:44:01.376Z,13.30
2019-04-23T14:46:43.845Z,12.17
2019-04-23T14:48:56.706Z,12.63
2019-04-23T14:51:47.435Z,11.50
2019-04-23T14:54:03.227Z,11.97
2019-04-23T14:56:29.883Z,14.67
2019-04-23T14:59:01.657Z,11.93
2019-04-23T15:01:47.699Z,11.00
2019-04-23T15:03:55.135Z,14.33
2019-04-23T15:06:36.042Z,12.00
2019-04-23T15:14:01.957Z,13.40
2019-04-23T15:21:53.854Z,11.87
2019-04-23T15:27:45.759Z,11.07
2019-04-23T15:29:06.030Z,13.93
2019-04-23T15:37:10.634Z,13.43
2019-04-23T15:46:56.636Z,12.13
2019-04-23T15:49:23.082Z,10.33
2019-04-23T15:54:24.980Z,13.97
2019-04-23T15:56:55.257Z,14.13
2019-04-23T15:59:31.273Z,11.80
2019-04-23T16:01:43.527Z,13.33
2019-04-23T16:03:57.581Z,13.47
2019-04-23T16:06:30.330Z,13.47
2019-04-23T16:09:16.247Z,12.97
2019-04-23T16:11:51.915Z,13.53
2019-04-23T16:14:32.963Z,14.00
2019-04-23T16:17:04.135Z,14.57
2019-04-23T16:19:54.833Z,14.77
2019-04-23T16:22:18.773Z,16.77
2019-04-23T16:24:48.530Z,12.87
2019-04-23T16:27:44.370Z,14.17
2019-04-23T16:32:33.114Z,14.93
2019-04-23T16:34:54.155Z,11.57
2019-04-23T16:37:20.210Z,13.43
2019-04-23T16:39:56.773Z,13.73
2019-04-23T16:42:27.266Z,15.83
2019-04-23T16:47:23.985Z,17.13
2019-04-23T16:50:06.366Z,15.10
2019-04-23T16:57:40.707Z,12.87
2019-04-23T17:00:15.234Z,14.23
2019-04-23T17:02:24.572Z,12.50
2019-04-23T17:05:02.854Z,16.07
2019-04-23T17:07:22.204Z,16.47
2019-04-23T17:12:28.052Z,14.20
2019-04-23T17:15:08.983Z,16.17
2019-04-23T17:17:30.879Z,14.10
2019-04-23T17:20:10.265Z,16.53
2019-04-23T17:22:33.903Z,14.00
2019-04-23T17:25:17.656Z,12.07
2019-04-23T17:27:39.142Z,15.30
2019-04-23T17:30:04.789Z,17.63
2019-04-23T17:32:57.084Z,15.13
2019-04-23T17:35:29.833Z,18.10
2019-04-23T17:38:05.124Z,17.27
2019-04-23T17:40:24.644Z,16.03
2019-04-23T17:43:04.784Z,17.60
2019-04-23T17:45:32.362Z,15.07
2019-04-23T17:48:12.907Z,14.93
2019-04-23T17:51:08.091Z,15.10
2019-04-23T17:53:29.897Z,15.13
2019-04-23T17:56:05.141Z,17.63
2019-04-23T17:58:23.466Z,14.13
2019-04-23T18:01:02.529Z,13.17
2019-04-23T18:03:25.792Z,15.23
2019-04-23T18:06:03.674Z,13.87
2019-04-23T18:08:17.854Z,14.47
2019-04-23T18:10:56.372Z,14.30
2019-04-23T18:13:28.397Z,18.30
2019-04-23T18:16:04.494Z,16.70
2019-04-23T18:18:30.696Z,16.50
2019-04-23T18:21:13.252Z,14.07
2019-04-23T18:23:43.537Z,18.40
2019-04-23T18:26:19.132Z,18.17
2019-04-23T18:28:47.991Z,18.83
2019-04-23T18:31:44.772Z,15.40
2019-04-23T18:34:23.832Z,15.03
2019-04-23T18:36:32.886Z,13.47
2019-04-23T18:39:06.827Z,13.60
2019-04-23T18:41:47.551Z,12.73
2019-04-23T18:44:15.853Z,16.20
2019-04-23T18:46:43.794Z,15.73
2019-04-23T18:49:11.292Z,19.47
2019-04-23T18:51:40.582Z,16.60
2019-04-23T18:54:11.050Z,16.50
2019-04-23T18:56:59.529Z,12.87
2019-04-23T18:59:24.777Z,11.67
2019-04-23T19:02:11.078Z,15.93
2019-04-23T19:05:07.265Z,15.60
2019-04-23T19:07:27.274Z,12.27
2019-04-23T19:10:12.037Z,14.67
2019-04-23T19:12:26.851Z,14.20
2019-04-23T19:17:44.121Z,15.37
2019-04-23T19:19:58.196Z,15.77
2019-04-23T19:24:45.260Z,12.63
2019-04-23T19:27:28.596Z,18.93
2019-04-23T19:30:01.874Z,13.93
2019-04-23T19:32:14.249Z,16.10
2019-04-23T19:35:16.385Z,14.20
2019-04-23T19:37:36.899Z,14.27
2019-04-23T19:39:53.199Z,14.00
2019-04-23T19:42:28.125Z,14.60
2019-04-23T19:49:56.815Z,15.23
2019-04-23T19:52:34.610Z,18.53
2019-04-23T19:57:39.686Z,13.87
2019-04-23T20:00:13.758Z,15.33
2019-04-23T20:02:38.615Z,14.77
2019-04-23T20:05:01.008Z,18.57
2019-04-23T20:07:43.133Z,14.13
2019-04-23T20:14:56.185Z,12.67
2019-04-23T20:17:37.974Z,14.70
2019-04-23T20:20:19.804Z,12.50
2019-04-23T20:22:45.134Z,15.87
2019-04-23T20:25:20.882Z,12.90
2019-04-23T20:27:39.731Z,14.40
2019-04-23T20:35:35.188Z,12.83
2019-04-23T20:38:25.840Z,15.93
2019-04-23T20:40:48.056Z,14.13
2019-04-23T20:43:05.817Z,17.90
2019-04-23T20:48:09.239Z,14.23
2019-04-23T20:50:39.417Z,16.23
2019-04-23T20:53:04.967Z,15.57
2019-04-23T20:56:05.511Z,9.50
2019-04-23T20:58:31.532Z,10.03
2019-04-23T21:01:19.120Z,12.17
2019-04-23T21:03:47.223Z,12.00
2019-04-23T21:06:10.314Z,11.17
2019-04-23T21:09:08.115Z,9.93
2019-04-23T21:11:05.192Z,11.80
2019-04-23T21:14:01.831Z,14.23
2019-04-23T21:16:15.347Z,13.50
2019-04-23T21:18:41.150Z,14.23
2019-04-23T21:21:34.997Z,14.33
2019-04-23T21:23:50.434Z,14.23
2019-04-23T21:26:07.847Z,13.37
2019-04-23T21:28:54.197Z,11.60
2019-04-23T21:31:37.729Z,15.40
2019-04-23T21:34:05.888Z,12.07
2019-04-23T21:36:40.338Z,14.90
2019-04-23T21:44:13.531Z,12.10
2019-04-23T21:46:50.944Z,12.13
2019-04-23T21:54:17.401Z,11.80
2019-04-23T21:56:47.185Z,14.47
2019-04-23T22:02:14.359Z,8.50
2019-04-23T22:04:23.090Z,14.30
2019-04-23T22:14:27.482Z,10.47
2019-04-23T22:17:10.341Z,12.07
2019-04-23T22:19:19.906Z,11.77
2019-04-23T22:21:57.514Z,15.40
2019-04-23T22:24:19.366Z,11.63
2019-04-23T22:26:53.227Z,11.83
2019-04-23T22:29:33.454Z,11.97
2019-04-23T22:31:58.265Z,12.17
2019-04-23T22:37:10.966Z,13.00
2019-04-23T22:39:39.983Z,10.67
2019-04-23T22:42:22.264Z,10.33
2019-04-23T22:44:50.689Z,10.63
2019-04-23T22:47:06.111Z,12.43
2019-04-23T22:52:18.774Z,11.37
2019-04-23T22:54:49.619Z,10.77
2019-04-23T22:57:04.677Z,13.10
2019-04-23T22:59:57.340Z,12.43
2019-04-23T23:02:22.983Z,12.13
2019-04-23T23:07:20.154Z,11.97
2019-04-23T23:09:58.543Z,10.00
2019-04-23T23:12:21.312Z,12.63
2019-04-23T23:14:54.367Z,9.63
2019-04-23T23:17:20.728Z,9.80
2019-04-23T23:20:03.611Z,10.83
2019-04-23T23:22:18.371Z,11.03
2019-04-23T23:25:02.508Z,12.73
2019-04-23T23:27:18.433Z,10.63
2019-04-23T23:30:00.734Z,10.43
2019-04-23T23:32:23.190Z,10.87
2019-04-23T23:35:12.606Z,8.77
2019-04-23T23:37:24.006Z,8.50
2019-04-23T23:39:58.390Z,9.57
2019-04-23T23:42:22.125Z,12.77
2019-04-23T23:47:18.301Z,9.90
2019-04-23T23:50:00.999Z,7.37
2019-04-23T23:52:33.185Z,12.43
2019-04-23T23:55:03.800Z,10.73
2019-04-23T23:57:22.838Z,11.50
